Time;durP1;ratioP1;P1;durP2;ratioP2;P2;SDS_P1;SDS_P2;PMS_P1;PMS_P2;Temp;Humidity;BMP_temperature;BMP_pressure;BME280_temperature;BME280_humidity;BME280_pressure;Samples;Min_cycle;Max_cycle;Signal;HPM_P1;HPM_P2
2022/10/19 00:01:51;;;;;;;5.07;3.60;;;13.00;99.90;;;;;;5084996;28;20465;-94
2022/10/19 00:04:18;;;;;;;4.80;3.83;;;12.90;99.90;;;;;;5086503;28;20541;-94
2022/10/19 00:06:47;;;;;;;4.33;3.53;;;12.90;99.90;;;;;;5087513;28;20236;-93
2022/10/19 00:09:16;;;;;;;4.27;3.70;;;12.80;99.90;;;;;;5087634;28;20539;-94
2022/10/19 00:11:47;;;;;;;3.90;3.20;;;12.80;99.90;;;;;;5088760;28;20481;-94
2022/10/19 00:14:17;;;;;;;4.18;3.33;;;12.80;99.90;;;;;;5089896;28;20538;-94
2022/10/19 00:16:46;;;;;;;4.37;3.57;;;12.80;99.90;;;;;;5090724;28;20264;-93
2022/10/19 00:19:16;;;;;;;3.47;3.07;;;12.80;99.90;;;;;;5091999;28;20463;-93
2022/10/19 00:21:43;;;;;;;3.10;2.80;;;12.80;99.90;;;;;;5089862;28;20542;-94
2022/10/19 00:24:11;;;;;;;6.38;3.80;;;12.70;99.90;;;;;;5088529;28;20467;-94
2022/10/19 00:26:38;;;;;;;6.37;4.30;;;12.70;99.90;;;;;;5088456;28;20201;-94
2022/10/19 00:29:07;;;;;;;4.63;3.50;;;12.70;99.90;;;;;;5086276;28;20550;-95
2022/10/19 00:31:35;;;;;;;5.73;4.67;;;12.70;99.90;;;;;;5086416;28;20466;-93
2022/10/19 00:36:42;;;;;;;6.80;4.00;;;12.70;99.90;;;;;;5085797;28;20447;-94
2022/10/19 00:39:15;;;;;;;4.80;4.00;;;12.70;99.90;;;;;;5085618;28;20491;-95
2022/10/19 00:41:44;;;;;;;5.15;3.75;;;12.70;99.90;;;;;;5084683;28;20694;-95
2022/10/19 00:44:44;;;;;;;6.77;4.00;;;12.70;99.90;;;;;;5087265;28;20240;-94
2022/10/19 00:47:11;;;;;;;8.52;5.07;;;12.70;99.90;;;;;;5088119;28;20483;-95
2022/10/19 00:49:42;;;;;;;4.97;3.77;;;12.70;99.90;;;;;;5095471;28;20217;-94
2022/10/19 00:52:15;;;;;;;4.33;3.93;;;12.60;99.90;;;;;;5093949;28;20464;-95
2022/10/19 00:54:45;;;;;;;5.30;3.90;;;12.60;99.90;;;;;;5088383;28;20464;-94
2022/10/19 00:57:14;;;;;;;4.47;3.60;;;12.60;99.90;;;;;;5087332;28;20201;-94
2022/10/19 00:59:43;;;;;;;6.40;4.30;;;12.60;99.90;;;;;;5086114;28;20537;-94
2022/10/19 01:02:12;;;;;;;5.13;3.97;;;12.60;99.90;;;;;;5085419;28;20479;-94
2022/10/19 01:04:44;;;;;;;8.32;4.60;;;12.50;99.90;;;;;;5085828;28;20952;-94
2022/10/19 01:07:11;;;;;;;5.93;4.40;;;12.50;99.90;;;;;;5085543;28;20272;-94
2022/10/19 01:09:38;;;;;;;3.87;3.43;;;12.50;99.90;;;;;;5085360;28;20530;-94
2022/10/19 01:12:18;;;;;;;7.33;4.40;;;12.50;99.90;;;;;;5086782;28;20485;-93
2022/10/19 01:15:00;;;;;;;7.10;4.25;;;12.50;99.90;;;;;;5086544;28;20483;-95
2022/10/19 01:17:39;;;;;;;6.18;3.67;;;12.40;99.90;;;;;;5085573;28;20216;-93
2022/10/19 01:20:42;;;;;;;6.60;4.47;;;12.40;99.90;;;;;;5086164;28;20232;-93
2022/10/19 01:23:49;;;;;;;5.83;4.23;;;12.40;99.90;;;;;;5082801;28;20569;-94
2022/10/19 01:26:32;;;;;;;6.33;4.10;;;12.40;99.90;;;;;;5061872;28;20521;-93
2022/10/19 01:29:14;;;;;;;5.93;4.50;;;12.30;99.90;;;;;;5081683;28;20483;-93
2022/10/19 01:31:48;;;;;;;6.83;4.90;;;12.40;99.90;;;;;;5079092;28;20204;-94
2022/10/19 01:34:19;;;;;;;6.97;4.90;;;12.40;99.90;;;;;;5083088;28;20470;-94
2022/10/19 01:36:54;;;;;;;7.83;5.07;;;12.40;99.90;;;;;;5084211;28;20456;-94
2022/10/19 01:39:28;;;;;;;4.60;4.10;;;12.40;99.90;;;;;;5086264;28;20459;-93
2022/10/19 01:42:02;;;;;;;9.45;5.50;;;12.40;99.90;;;;;;5085685;28;20546;-94
2022/10/19 01:44:39;;;;;;;5.93;4.20;;;12.40;99.90;;;;;;5090910;28;20207;-93
2022/10/19 01:47:21;;;;;;;5.57;4.57;;;12.50;99.90;;;;;;5094637;28;20451;-94
2022/10/19 01:49:53;;;;;;;5.87;4.50;;;12.50;99.90;;;;;;5082791;28;20455;-93
2022/10/19 01:52:23;;;;;;;6.68;4.22;;;12.60;99.90;;;;;;5082600;28;20581;-94
2022/10/19 01:54:54;;;;;;;6.50;4.33;;;12.60;99.90;;;;;;5083937;28;20215;-93
2022/10/19 01:57:26;;;;;;;7.17;4.73;;;12.60;99.90;;;;;;5083555;28;20498;-94
2022/10/19 01:59:54;;;;;;;8.37;5.33;;;12.70;99.90;;;;;;5083352;28;20470;-93
2022/10/19 02:02:25;;;;;;;6.87;4.70;;;12.70;99.90;;;;;;5083141;28;20553;-94
2022/10/19 02:04:53;;;;;;;9.57;5.10;;;12.70;99.90;;;;;;5083394;28;20558;-94
2022/10/19 02:07:23;;;;;;;5.10;4.33;;;12.80;99.90;;;;;;5069573;28;20470;-93
2022/10/19 02:09:50;;;;;;;6.43;4.20;;;12.80;99.90;;;;;;5063408;28;20543;-94
2022/10/19 02:12:18;;;;;;;9.40;5.57;;;12.80;99.90;;;;;;5062267;28;21095;-93
2022/10/19 02:14:52;;;;;;;7.50;4.33;;;12.90;99.90;;;;;;5063046;28;20651;-94
2022/10/19 02:17:23;;;;;;;13.23;5.30;;;12.90;99.90;;;;;;5062947;28;20456;-94
2022/10/19 02:19:52;;;;;;;7.97;5.83;;;12.90;99.90;;;;;;5062488;28;20587;-94
2022/10/19 02:22:21;;;;;;;9.90;5.50;;;13.00;99.90;;;;;;5062048;28;20476;-93
2022/10/19 02:24:47;;;;;;;10.30;5.50;;;13.00;99.90;;;;;;5062830;28;20527;-94
2022/10/19 02:27:14;;;;;;;11.00;5.97;;;13.00;99.90;;;;;;5063161;28;20540;-94
2022/10/19 02:29:41;;;;;;;9.50;6.40;;;13.10;99.90;;;;;;5063463;28;20484;-93
2022/10/19 02:32:10;;;;;;;9.70;6.30;;;13.10;99.90;;;;;;5064331;28;20647;-94
2022/10/19 02:34:38;;;;;;;11.93;5.50;;;13.10;99.90;;;;;;5065544;28;20491;-93
2022/10/19 02:37:07;;;;;;;12.93;6.40;;;13.10;99.90;;;;;;5063099;28;20460;-93
2022/10/19 02:39:34;;;;;;;13.17;7.17;;;13.10;99.90;;;;;;5066946;28;20555;-95
2022/10/19 02:42:06;;;;;;;13.10;7.20;;;13.20;99.90;;;;;;5067967;28;20575;-94
2022/10/19 02:44:40;;;;;;;10.10;6.53;;;13.20;99.90;;;;;;5063951;28;20462;-93
2022/10/19 02:47:11;;;;;;;13.67;7.83;;;13.20;99.90;;;;;;5062786;28;20543;-93
2022/10/19 02:49:39;;;;;;;13.83;6.93;;;13.20;99.90;;;;;;5062422;28;20484;-94
2022/10/19 02:52:10;;;;;;;15.13;6.60;;;13.20;99.90;;;;;;5065167;28;20483;-94
2022/10/19 02:54:39;;;;;;;13.73;7.23;;;13.20;99.90;;;;;;5073406;28;20492;-94
2022/10/19 02:57:15;;;;;;;17.33;7.73;;;13.30;99.90;;;;;;5071663;28;20464;-94
2022/10/19 02:59:41;;;;;;;14.57;7.73;;;13.30;99.90;;;;;;5065509;28;20452;-93
2022/10/19 03:02:08;;;;;;;13.30;7.63;;;13.30;99.90;;;;;;5064896;28;20508;-95
2022/10/19 03:04:44;;;;;;;13.00;8.17;;;13.30;99.90;;;;;;5064777;28;20468;-94
2022/10/19 03:07:14;;;;;;;14.03;7.23;;;13.40;99.90;;;;;;5065588;28;20517;-94
2022/10/19 03:09:41;;;;;;;14.70;6.90;;;13.40;99.90;;;;;;5064796;28;20579;-94
2022/10/19 03:12:09;;;;;;;15.20;9.10;;;13.40;99.90;;;;;;5065208;28;20480;-94
2022/10/19 03:14:35;;;;;;;13.80;7.40;;;13.40;99.90;;;;;;5064235;28;20524;-93
2022/10/19 03:17:06;;;;;;;12.80;7.00;;;13.50;99.90;;;;;;5065576;28;20499;-95
2022/10/19 03:19:37;;;;;;;13.80;7.57;;;13.50;99.90;;;;;;5067043;28;20563;-95
2022/10/19 03:22:05;;;;;;;12.83;7.10;;;13.50;99.90;;;;;;5066454;28;20480;-95
2022/10/19 03:24:33;;;;;;;13.93;7.50;;;13.50;99.90;;;;;;5068453;28;20474;-94
2022/10/19 03:27:00;;;;;;;21.00;8.33;;;13.50;99.90;;;;;;5068059;28;20483;-94
2022/10/19 03:29:27;;;;;;;13.77;7.57;;;13.50;99.90;;;;;;5068680;28;20490;-94
2022/10/19 03:31:54;;;;;;;15.43;7.33;;;13.60;99.90;;;;;;5067192;28;20543;-93
2022/10/19 03:34:21;;;;;;;13.50;7.97;;;13.60;99.90;;;;;;5076425;28;20539;-93
2022/10/19 03:36:48;;;;;;;18.60;7.93;;;13.60;99.90;;;;;;5087075;28;20432;-95
2022/10/19 03:39:16;;;;;;;13.40;8.20;;;13.60;99.90;;;;;;5088239;28;20602;-94
2022/10/19 03:41:45;;;;;;;14.77;7.30;;;13.70;99.90;;;;;;5087924;28;20436;-94
2022/10/19 03:44:12;;;;;;;16.13;7.77;;;13.70;99.90;;;;;;5089167;28;20443;-94
2022/10/19 03:46:40;;;;;;;14.93;7.80;;;13.70;99.90;;;;;;5091174;28;20451;-95
2022/10/19 03:49:07;;;;;;;15.07;8.10;;;13.70;99.90;;;;;;5087963;28;20491;-95
2022/10/19 03:51:35;;;;;;;14.13;7.87;;;13.70;99.90;;;;;;5089520;28;20448;-93
2022/10/19 03:54:04;;;;;;;17.80;8.33;;;13.80;99.90;;;;;;5062576;22;20931;-67
2022/10/19 03:56:32;;;;;;;17.47;8.23;;;13.80;99.90;;;;;;5001731;28;20466;-68
2022/10/19 03:59:02;;;;;;;10.60;7.40;;;13.80;99.90;;;;;;4998596;28;20568;-68
2022/10/19 04:01:30;;;;;;;16.17;7.87;;;13.80;99.90;;;;;;4994015;28;20457;-68
2022/10/19 04:03:59;;;;;;;15.87;8.13;;;13.80;99.90;;;;;;5002421;28;20481;-68
2022/10/19 04:06:28;;;;;;;16.53;8.00;;;13.80;99.90;;;;;;5003614;28;20454;-68
2022/10/19 04:08:56;;;;;;;12.67;8.20;;;13.80;99.90;;;;;;5002878;28;21002;-67
2022/10/19 04:11:24;;;;;;;15.13;8.00;;;13.90;99.90;;;;;;5000447;28;20453;-68
2022/10/19 04:13:52;;;;;;;13.87;7.73;;;13.90;99.90;;;;;;5002031;28;20486;-68
2022/10/19 04:16:21;;;;;;;14.07;8.87;;;13.90;99.90;;;;;;5002008;28;20912;-68
2022/10/19 04:18:49;;;;;;;13.50;7.03;;;13.90;99.90;;;;;;5003337;28;20462;-68
2022/10/19 04:21:21;;;;;;;13.60;8.27;;;13.90;99.90;;;;;;5002160;28;20470;-67
2022/10/19 04:23:49;;;;;;;14.10;8.83;;;13.90;99.90;;;;;;4998881;28;20482;-68
2022/10/19 04:26:16;;;;;;;14.37;8.13;;;14.00;99.90;;;;;;5005312;28;20458;-68
2022/10/19 04:28:43;;;;;;;18.08;9.68;;;14.00;99.90;;;;;;5005040;28;20461;-65
2022/10/19 04:31:11;;;;;;;13.90;7.50;;;14.00;99.90;;;;;;5011842;28;20199;-67
2022/10/19 04:33:39;;;;;;;13.97;8.73;;;14.00;99.90;;;;;;5053968;22;21004;-69
2022/10/19 04:36:08;;;;;;;14.57;8.27;;;14.00;99.90;;;;;;5009184;28;20831;-69
2022/10/19 04:38:36;;;;;;;13.37;7.83;;;14.00;99.90;;;;;;5010354;28;20454;-69
2022/10/19 04:41:04;;;;;;;14.17;8.23;;;14.10;99.90;;;;;;5010522;28;20458;-69
2022/10/19 04:43:31;;;;;;;14.47;8.57;;;14.10;99.90;;;;;;5009697;28;20474;-69
2022/10/19 04:46:04;;;;;;;13.33;8.97;;;14.10;99.90;;;;;;5010520;28;20454;-69
2022/10/19 04:48:31;;;;;;;14.07;7.47;;;14.10;99.90;;;;;;5011107;28;20492;-69
2022/10/19 04:50:59;;;;;;;13.70;7.73;;;14.10;99.90;;;;;;5012786;28;20468;-69
2022/10/19 04:53:26;;;;;;;17.60;10.10;;;14.10;99.90;;;;;;5012261;28;20497;-68
2022/10/19 04:55:52;;;;;;;13.73;8.20;;;14.10;99.90;;;;;;5012975;28;20462;-70
2022/10/19 04:58:19;;;;;;;9.60;6.70;;;14.10;99.90;;;;;;5012918;28;20468;-68
2022/10/19 05:00:46;;;;;;;14.53;8.97;;;14.10;99.90;;;;;;5013488;28;20462;-69
2022/10/19 05:03:13;;;;;;;12.40;7.57;;;14.10;99.90;;;;;;5012541;28;20472;-68
2022/10/19 05:05:40;;;;;;;16.17;9.47;;;14.10;99.90;;;;;;5013016;28;20458;-70
2022/10/19 05:08:09;;;;;;;13.70;8.80;;;14.10;99.90;;;;;;5012747;28;20837;-68
2022/10/19 05:10:36;;;;;;;16.27;9.57;;;14.20;99.90;;;;;;5012335;28;20500;-69
2022/10/19 05:13:03;;;;;;;13.23;8.30;;;14.20;99.90;;;;;;5009288;28;20462;-68
2022/10/19 05:15:30;;;;;;;12.90;8.73;;;14.10;99.90;;;;;;5010975;28;20485;-69
2022/10/19 05:17:57;;;;;;;14.37;9.00;;;14.20;99.90;;;;;;5011597;28;20462;-69
2022/10/19 05:20:24;;;;;;;13.63;9.17;;;14.20;99.90;;;;;;5008917;28;20927;-69
2022/10/19 05:22:51;;;;;;;13.13;7.90;;;14.20;99.90;;;;;;5010425;28;20461;-69
2022/10/19 05:25:19;;;;;;;14.40;8.60;;;14.20;99.90;;;;;;5012256;28;20489;-68
2022/10/19 05:27:51;;;;;;;15.47;11.20;;;14.20;99.90;;;;;;5012404;28;20462;-68
2022/10/19 05:30:18;;;;;;;16.33;11.10;;;14.20;99.90;;;;;;5012237;28;20862;-70
2022/10/19 05:32:45;;;;;;;17.17;10.10;;;14.20;99.90;;;;;;5012031;28;20552;-69
2022/10/19 05:35:11;;;;;;;15.17;9.63;;;14.20;99.90;;;;;;5013307;28;20481;-69
2022/10/19 05:37:38;;;;;;;17.30;11.82;;;14.20;99.90;;;;;;5011114;28;20466;-70
2022/10/19 05:40:06;;;;;;;21.07;12.47;;;14.20;99.90;;;;;;5012231;28;20217;-70
2022/10/19 05:42:34;;;;;;;22.57;11.43;;;14.20;99.90;;;;;;5011511;28;20466;-68
2022/10/19 05:45:01;;;;;;;19.50;11.63;;;14.30;99.90;;;;;;5012398;28;20509;-70
2022/10/19 05:47:28;;;;;;;14.70;10.43;;;14.30;99.90;;;;;;5012845;28;20531;-69
2022/10/19 05:49:54;;;;;;;21.07;11.43;;;14.20;99.90;;;;;;5012787;28;20486;-72
2022/10/19 05:52:21;;;;;;;15.37;11.20;;;14.20;99.90;;;;;;5012485;28;20462;-71
2022/10/19 05:54:48;;;;;;;16.00;9.47;;;14.20;99.90;;;;;;5012555;28;20858;-71
2022/10/19 05:57:14;;;;;;;15.67;10.50;;;14.20;99.90;;;;;;5012228;28;20473;-71
2022/10/19 05:59:43;;;;;;;14.80;9.63;;;14.20;99.90;;;;;;5012088;28;20977;-72
2022/10/19 06:02:13;;;;;;;12.97;8.70;;;14.10;99.90;;;;;;5011822;28;20462;-71
2022/10/19 06:04:40;;;;;;;12.47;8.23;;;14.10;99.90;;;;;;5012252;28;20489;-71
2022/10/19 06:07:06;;;;;;;17.10;10.17;;;14.10;99.90;;;;;;5012103;28;20965;-71
2022/10/19 06:09:35;;;;;;;17.10;10.20;;;14.10;99.90;;;;;;5011695;28;20493;-70
2022/10/19 06:12:02;;;;;;;14.47;9.20;;;14.10;99.90;;;;;;5012122;28;20524;-70
2022/10/19 06:14:28;;;;;;;13.03;9.20;;;14.10;99.90;;;;;;5012012;28;20488;-69
2022/10/19 06:16:57;;;;;;;13.03;9.27;;;14.10;99.90;;;;;;5012125;28;20469;-69
2022/10/19 06:19:23;;;;;;;12.70;8.57;;;14.10;99.90;;;;;;5011836;28;20473;-69
2022/10/19 06:21:50;;;;;;;11.27;7.97;;;14.10;99.90;;;;;;5013084;28;20458;-69
2022/10/19 06:24:17;;;;;;;12.40;7.90;;;14.00;99.90;;;;;;5012294;28;20494;-72
2022/10/19 06:26:44;;;;;;;11.00;8.20;;;14.00;99.90;;;;;;5010594;28;20545;-72
2022/10/19 06:29:10;;;;;;;8.47;6.23;;;14.00;99.90;;;;;;5011763;28;20489;-71
2022/10/19 06:31:37;;;;;;;10.50;7.23;;;13.90;99.90;;;;;;5011521;28;20830;-72
2022/10/19 06:34:06;;;;;;;10.30;7.40;;;14.00;99.90;;;;;;5011701;28;20494;-72
2022/10/19 06:36:33;;;;;;;11.37;7.40;;;13.90;99.90;;;;;;5011433;28;20957;-73
2022/10/19 06:39:01;;;;;;;10.37;7.83;;;13.90;99.90;;;;;;5005983;28;20462;-72
2022/10/19 06:41:30;;;;;;;9.03;8.07;;;13.90;99.90;;;;;;5008723;28;20953;-70
2022/10/19 06:43:57;;;;;;;10.80;7.63;;;13.90;99.90;;;;;;5011425;28;21013;-70
2022/10/19 06:46:25;;;;;;;9.20;7.50;;;13.90;99.90;;;;;;5010888;28;20469;-71
2022/10/19 06:48:54;;;;;;;15.80;8.47;;;13.90;99.90;;;;;;5011112;28;20838;-72
2022/10/19 06:51:24;;;;;;;11.13;8.50;;;13.90;99.90;;;;;;5010636;28;21031;-69
2022/10/19 06:53:52;;;;;;;10.10;6.83;;;13.90;99.90;;;;;;5011511;28;20482;-70
2022/10/19 06:56:20;;;;;;;14.40;8.90;;;13.90;99.90;;;;;;5011217;28;20527;-72
2022/10/19 06:58:48;;;;;;;11.97;8.33;;;13.90;99.90;;;;;;5002896;28;20465;-72
2022/10/19 07:01:15;;;;;;;11.53;7.93;;;13.90;99.90;;;;;;4990823;28;20496;-71
2022/10/19 07:03:43;;;;;;;11.33;8.27;;;13.90;99.90;;;;;;4991387;28;20839;-71
2022/10/19 07:06:12;;;;;;;9.60;7.90;;;13.90;99.90;;;;;;4991341;28;20474;-70
2022/10/19 07:08:41;;;;;;;10.67;8.43;;;13.90;99.90;;;;;;4991295;28;20462;-71
2022/10/19 07:11:09;;;;;;;13.67;9.17;;;13.90;99.90;;;;;;4991169;28;20858;-71
2022/10/19 07:13:37;;;;;;;10.23;7.63;;;13.90;99.90;;;;;;4991766;28;20491;-71
2022/10/19 07:16:06;;;;;;;12.23;8.33;;;14.00;99.90;;;;;;4990967;28;20543;-71
2022/10/19 07:18:34;;;;;;;8.63;7.00;;;14.00;99.90;;;;;;4990331;28;20466;-71
2022/10/19 07:21:04;;;;;;;15.87;8.53;;;14.00;99.90;;;;;;4991064;28;20463;-71
2022/10/19 07:23:32;;;;;;;14.40;8.47;;;14.00;99.90;;;;;;4989946;28;21047;-70
2022/10/19 07:26:04;;;;;;;12.83;7.77;;;14.00;99.90;;;;;;4991247;28;20462;-70
2022/10/19 07:28:31;;;;;;;14.10;9.47;;;14.00;99.90;;;;;;4990883;28;20466;-71
2022/10/19 07:30:58;;;;;;;14.07;9.00;;;14.00;99.90;;;;;;4990856;28;20858;-71
2022/10/19 07:33:25;;;;;;;14.60;8.83;;;14.10;99.90;;;;;;4990527;28;21082;-71
2022/10/19 07:35:59;;;;;;;10.80;8.27;;;14.10;99.90;;;;;;4991228;28;20467;-72
2022/10/19 07:38:25;;;;;;;12.90;8.50;;;14.10;99.90;;;;;;4990676;28;20462;-71
2022/10/19 07:41:02;;;;;;;13.67;8.37;;;14.10;99.90;;;;;;4992109;28;20969;-72
2022/10/19 07:43:29;;;;;;;14.43;8.60;;;14.10;99.90;;;;;;4990200;28;20454;-71
2022/10/19 07:46:00;;;;;;;9.87;7.13;;;14.10;99.90;;;;;;4991281;28;20469;-71
2022/10/19 07:48:27;;;;;;;14.40;9.60;;;14.20;99.90;;;;;;4991254;28;20889;-68
2022/10/19 07:50:54;;;;;;;9.63;7.47;;;14.20;99.90;;;;;;4990905;28;21039;-70
2022/10/19 07:53:21;;;;;;;12.37;8.87;;;14.20;99.90;;;;;;4990789;28;20463;-71
2022/10/19 07:55:48;;;;;;;13.03;8.43;;;14.20;99.90;;;;;;4990779;28;20474;-71
2022/10/19 07:58:16;;;;;;;9.43;7.00;;;14.20;99.90;;;;;;4992001;28;20466;-71
2022/10/19 08:00:43;;;;;;;11.57;7.97;;;14.20;99.90;;;;;;4990581;28;20469;-71
2022/10/19 08:03:10;;;;;;;10.33;7.93;;;14.20;99.90;;;;;;4990630;28;20467;-72
2022/10/19 08:05:36;;;;;;;8.70;6.90;;;14.20;99.90;;;;;;4990617;28;20466;-72
2022/10/19 08:08:04;;;;;;;10.70;7.63;;;14.20;99.90;;;;;;4991109;28;20485;-71
2022/10/19 08:10:31;;;;;;;10.00;6.97;;;14.30;99.90;;;;;;4994144;28;20489;-72
2022/10/19 08:13:00;;;;;;;8.43;6.60;;;14.30;99.90;;;;;;4994348;28;20959;-71
2022/10/19 08:15:33;;;;;;;8.73;7.07;;;14.30;99.90;;;;;;4994171;28;20482;-71
2022/10/19 08:18:00;;;;;;;8.67;6.40;;;14.30;99.90;;;;;;5013639;28;20461;-71
2022/10/19 08:20:27;;;;;;;8.47;6.27;;;14.40;99.90;;;;;;4999551;28;20459;-69
2022/10/19 08:22:54;;;;;;;9.20;7.17;;;14.50;99.90;;;;;;4991103;28;20459;-69
2022/10/19 08:25:20;;;;;;;12.37;6.87;;;14.50;99.90;;;;;;4990781;28;21038;-70
2022/10/19 08:27:47;;;;;;;8.70;7.10;;;14.50;99.90;;;;;;4993672;28;20459;-72
2022/10/19 08:30:14;;;;;;;9.50;6.70;;;14.50;99.90;;;;;;4994115;28;20487;-72
2022/10/19 08:32:42;;;;;;;10.10;7.83;;;14.50;99.90;;;;;;4991522;28;20481;-70
2022/10/19 08:35:09;;;;;;;10.90;7.00;;;14.50;99.90;;;;;;4994641;28;20486;-70
2022/10/19 08:37:36;;;;;;;9.60;7.47;;;14.50;99.90;;;;;;4993640;28;20504;-71
2022/10/19 08:40:03;;;;;;;7.53;5.90;;;14.50;99.90;;;;;;4994450;28;20463;-71
2022/10/19 08:42:41;;;;;;;11.87;8.33;;;14.50;99.90;;;;;;4993611;28;20471;-71
2022/10/19 08:45:31;;;;;;;8.20;6.40;;;14.50;99.90;;;;;;4994316;28;20573;-71
2022/10/19 08:48:07;;;;;;;8.60;6.73;;;14.60;99.90;;;;;;4994410;28;20463;-71
2022/10/19 08:50:37;;;;;;;8.87;6.40;;;14.60;99.90;;;;;;4993702;28;20489;-73
2022/10/19 08:53:07;;;;;;;9.10;7.30;;;14.60;99.90;;;;;;4993583;28;20467;-72
2022/10/19 08:55:48;;;;;;;11.60;6.83;;;14.60;99.90;;;;;;4993612;28;21025;-70
2022/10/19 08:58:32;;;;;;;7.60;6.20;;;14.60;99.90;;;;;;4993470;28;20469;-73
2022/10/19 09:01:03;;;;;;;8.97;6.87;;;14.50;99.90;;;;;;4993503;28;20458;-72
2022/10/19 09:03:39;;;;;;;10.80;8.30;;;14.50;99.90;;;;;;4992832;28;20487;-70
2022/10/19 09:06:15;;;;;;;9.10;6.80;;;14.60;99.90;;;;;;4994043;28;20506;-72
2022/10/19 09:08:41;;;;;;;7.83;5.93;;;14.60;99.90;;;;;;4998096;28;20465;-72
2022/10/19 09:11:11;;;;;;;11.60;5.30;;;14.60;99.90;;;;;;5012512;28;20494;-72
2022/10/19 09:13:42;;;;;;;8.30;5.80;;;14.60;99.90;;;;;;5012288;28;20489;-70
2022/10/19 09:16:12;;;;;;;6.67;5.27;;;14.60;99.90;;;;;;5013550;28;20469;-71
2022/10/19 09:18:42;;;;;;;7.67;5.50;;;14.60;99.90;;;;;;5013038;28;20466;-71
2022/10/19 09:21:14;;;;;;;8.80;5.80;;;14.60;99.90;;;;;;5011689;28;20957;-71
2022/10/19 09:23:49;;;;;;;7.17;5.63;;;14.60;99.90;;;;;;5012568;28;20521;-72
2022/10/19 09:26:18;;;;;;;6.80;5.37;;;14.60;99.90;;;;;;5012703;28;20465;-72
2022/10/19 09:28:50;;;;;;;7.10;5.47;;;14.60;99.90;;;;;;5012556;28;20945;-68
2022/10/19 09:31:24;;;;;;;5.87;4.97;;;14.60;99.90;;;;;;4990660;28;20486;-72
2022/10/19 09:33:58;;;;;;;9.60;5.63;;;14.60;99.90;;;;;;5000994;28;20492;-71
2022/10/19 09:36:35;;;;;;;6.20;5.10;;;14.60;99.90;;;;;;5011648;28;20466;-71
2022/10/19 09:39:03;;;;;;;8.00;5.60;;;14.70;99.90;;;;;;5012021;28;20519;-70
2022/10/19 09:41:30;;;;;;;7.73;5.50;;;14.70;99.90;;;;;;5011414;28;20469;-70
2022/10/19 09:43:57;;;;;;;5.33;4.80;;;14.70;99.90;;;;;;5011853;28;20872;-70
2022/10/19 09:46:43;;;;;;;7.47;5.67;;;14.70;99.90;;;;;;5012059;28;20469;-70
2022/10/19 09:49:12;;;;;;;6.80;5.00;;;14.70;99.90;;;;;;5012340;28;20481;-70
2022/10/19 09:51:44;;;;;;;6.37;4.80;;;14.70;99.90;;;;;;5011221;28;20855;-71
2022/10/19 09:54:30;;;;;;;4.20;3.80;;;14.70;99.90;;;;;;5011371;28;20835;-70
2022/10/19 09:56:57;;;;;;;4.73;4.23;;;14.60;99.90;;;;;;5012401;28;20466;-70
2022/10/19 09:59:28;;;;;;;4.60;4.10;;;14.60;99.90;;;;;;5011287;28;21021;-70
2022/10/19 10:02:15;;;;;;;5.87;5.13;;;14.70;99.90;;;;;;5012189;28;20461;-70
2022/10/19 10:04:46;;;;;;;5.90;5.03;;;14.70;99.90;;;;;;5011880;28;20489;-70
2022/10/19 10:07:16;;;;;;;4.83;4.20;;;14.60;99.90;;;;;;5011001;28;20462;-71
2022/10/19 10:09:44;;;;;;;4.20;3.80;;;14.60;99.90;;;;;;5010628;28;20469;-71
2022/10/19 10:12:14;;;;;;;5.43;4.30;;;14.60;99.90;;;;;;5010511;28;20942;-70
2022/10/19 10:14:43;;;;;;;7.57;5.57;;;14.60;99.90;;;;;;5010554;28;20491;-70
2022/10/19 10:17:16;;;;;;;6.23;4.40;;;14.60;99.90;;;;;;5011100;28;20466;-70
2022/10/19 10:20:03;;;;;;;7.03;5.87;;;14.60;99.90;;;;;;5010720;28;20466;-70
2022/10/19 10:22:32;;;;;;;5.47;4.63;;;14.60;99.90;;;;;;5010435;28;20467;-70
2022/10/19 10:27:32;;;;;;;5.23;4.67;;;14.70;99.90;;;;;;5028643;28;20830;-68
2022/10/19 10:29:59;;;;;;;5.40;4.30;;;14.60;99.90;;;;;;5047868;28;20822;-70
2022/10/19 10:32:27;;;;;;;4.10;3.57;;;14.60;99.90;;;;;;5049568;28;20460;-68
2022/10/19 10:35:01;;;;;;;5.00;4.47;;;14.70;99.90;;;;;;5050128;28;20480;-70
2022/10/19 10:37:33;;;;;;;4.53;3.23;;;14.80;99.90;;;;;;5049641;28;20530;-70
2022/10/19 10:40:00;;;;;;;2.93;2.60;;;14.80;99.90;;;;;;5050646;28;20467;-69
2022/10/19 10:42:32;;;;;;;3.40;3.10;;;14.80;99.90;;;;;;5049553;28;20464;-69
2022/10/19 10:44:59;;;;;;;3.37;2.80;;;14.90;99.90;;;;;;5050471;28;20591;-69
2022/10/19 10:47:28;;;;;;;3.17;2.47;;;14.80;99.90;;;;;;5050574;28;20950;-69
2022/10/19 10:49:59;;;;;;;1.90;1.70;;;14.90;99.90;;;;;;5049413;28;20467;-69
2022/10/19 10:52:28;;;;;;;2.80;2.47;;;14.90;99.90;;;;;;5050018;28;20495;-70
2022/10/19 10:55:00;;;;;;;3.70;2.83;;;14.90;99.90;;;;;;5050040;28;20479;-72
2022/10/19 10:57:32;;;;;;;2.53;2.33;;;14.90;99.90;;;;;;5050272;28;20498;-71
2022/10/19 11:00:06;;;;;;;3.57;2.57;;;14.90;99.90;;;;;;5044333;28;20478;-72
2022/10/19 11:02:40;;;;;;;3.93;3.60;;;14.90;99.90;;;;;;5049577;28;20566;-71
2022/10/19 11:05:14;;;;;;;2.70;2.50;;;14.90;99.90;;;;;;5050176;28;20483;-72
2022/10/19 11:07:45;;;;;;;3.00;2.70;;;14.90;99.90;;;;;;5050378;28;20459;-70
2022/10/19 11:10:20;;;;;;;3.00;2.70;;;14.90;99.90;;;;;;5050611;28;20882;-71
2022/10/19 11:12:52;;;;;;;2.30;2.10;;;15.00;99.90;;;;;;5050014;28;20459;-72
2022/10/19 11:15:23;;;;;;;2.53;2.20;;;15.00;99.90;;;;;;5050190;28;20476;-71
2022/10/19 11:18:06;;;;;;;3.03;2.43;;;15.00;99.90;;;;;;5050613;28;20455;-68
2022/10/19 11:20:41;;;;;;;2.57;2.37;;;15.10;99.90;;;;;;5050375;28;20460;-68
2022/10/19 11:23:15;;;;;;;2.50;2.30;;;15.20;99.90;;;;;;5049971;28;20466;-71
2022/10/19 11:25:56;;;;;;;5.80;3.40;;;15.20;99.90;;;;;;5050455;28;20550;-71
2022/10/19 11:28:38;;;;;;;5.90;3.73;;;15.20;99.90;;;;;;5049849;28;20953;-70
2022/10/19 11:31:13;;;;;;;3.40;3.10;;;15.30;99.90;;;;;;5050385;28;20515;-72
2022/10/19 11:33:49;;;;;;;4.90;3.87;;;15.30;99.90;;;;;;5050114;28;21364;-71
2022/10/19 11:36:32;;;;;;;4.80;3.30;;;15.40;99.90;;;;;;5050174;28;20466;-70
2022/10/19 11:39:17;;;;;;;4.93;3.63;;;15.40;99.90;;;;;;5050053;28;20463;-70
2022/10/19 11:41:54;;;;;;;4.13;3.20;;;15.50;99.90;;;;;;5049798;28;20482;-71
2022/10/19 11:44:34;;;;;;;5.17;3.93;;;15.50;99.90;;;;;;5051909;28;20482;-70
2022/10/19 11:47:17;;;;;;;6.80;3.57;;;15.50;99.90;;;;;;5054525;28;20459;-70
2022/10/19 11:49:55;;;;;;;4.97;3.10;;;15.50;99.90;;;;;;5054256;28;20459;-70
2022/10/19 11:52:32;;;;;;;5.50;3.73;;;15.50;99.90;;;;;;5053770;28;20491;-69
2022/10/19 11:55:11;;;;;;;4.37;3.40;;;15.50;99.90;;;;;;5054612;28;20490;-70
2022/10/19 11:57:44;;;;;;;4.20;3.80;;;15.50;99.90;;;;;;5052789;28;20463;-72
2022/10/19 12:00:16;;;;;;;4.20;3.80;;;15.50;99.90;;;;;;5054102;28;20460;-73
2022/10/19 12:03:05;;;;;;;5.00;4.10;;;15.50;99.90;;;;;;5053497;28;20456;-72
2022/10/19 12:05:40;;;;;;;4.40;3.10;;;15.50;99.90;;;;;;5053588;28;20475;-73
2022/10/19 12:08:21;;;;;;;4.70;3.27;;;15.50;99.90;;;;;;5053969;28;20558;-73
2022/10/19 12:10:56;;;;;;;3.13;2.83;;;15.60;99.90;;;;;;5053452;28;20558;-70
2022/10/19 12:13:28;;;;;;;4.60;3.20;;;15.70;99.90;;;;;;5052747;28;20456;-72
2022/10/19 12:16:10;;;;;;;4.10;3.80;;;15.80;99.90;;;;;;5053444;28;20467;-72
2022/10/19 12:19:17;;;;;;;3.53;3.20;;;15.70;99.90;;;;;;5053103;28;20473;-73
2022/10/19 12:21:45;;;;;;;5.03;3.73;;;15.80;99.90;;;;;;5052272;28;21053;-73
2022/10/19 12:24:21;;;;;;;4.70;4.10;;;15.80;99.90;;;;;;5054414;28;20475;-73
2022/10/19 12:26:50;;;;;;;5.40;4.10;;;15.80;99.90;;;;;;5053582;28;20828;-70
2022/10/19 12:29:21;;;;;;;4.10;3.60;;;15.80;99.90;;;;;;5053107;28;20487;-70
2022/10/19 12:31:50;;;;;;;3.37;3.07;;;15.80;99.90;;;;;;5052722;28;20491;-72
2022/10/19 12:34:40;;;;;;;5.13;4.20;;;15.90;99.90;;;;;;5053208;28;20487;-71
2022/10/19 12:37:11;;;;;;;4.37;3.80;;;16.00;99.90;;;;;;5055016;28;20459;-70
2022/10/19 12:39:49;;;;;;;4.10;3.73;;;16.00;99.90;;;;;;5053033;28;20943;-71
2022/10/19 12:42:24;;;;;;;3.97;3.60;;;16.00;99.90;;;;;;5052005;28;20456;-71
2022/10/19 12:45:24;;;;;;;4.63;4.00;;;16.10;99.90;;;;;;5053072;28;20475;-69
2022/10/19 12:48:17;;;;;;;4.70;4.30;;;16.10;99.90;;;;;;5043116;28;20467;-70
2022/10/19 12:51:07;;;;;;;4.80;4.00;;;16.00;99.90;;;;;;5052914;28;20474;-71
2022/10/19 12:53:37;;;;;;;5.20;4.00;;;16.00;99.90;;;;;;5052432;28;20522;-71
2022/10/19 12:56:08;;;;;;;5.03;4.53;;;16.00;99.90;;;;;;5052311;28;20810;-72
2022/10/19 12:58:44;;;;;;;4.60;3.60;;;16.00;99.90;;;;;;5054258;28;20985;-71
2022/10/19 13:01:17;;;;;;;6.07;4.10;;;16.00;99.90;;;;;;5052845;28;20550;-71
2022/10/19 13:03:45;;;;;;;3.53;3.13;;;16.00;99.90;;;;;;5052318;28;20484;-71
2022/10/19 13:06:16;;;;;;;6.00;4.83;;;16.00;99.90;;;;;;5052022;28;20464;-70
2022/10/19 13:08:47;;;;;;;4.60;4.20;;;16.00;99.90;;;;;;5041163;28;20465;-67